sensor_id;sensor_type;location;lat;lon;timestamp;P1;durP1;ratioP1;P2;durP2;ratioP2
53299;SDS011;39187;48.476;8.310;2024-03-22T00:00:14;9.60;;;8.80;;
53299;SDS011;39187;48.476;8.310;2024-03-22T00:02:40;7.77;;;7.17;;
53299;SDS011;39187;48.476;8.310;2024-03-22T00:05:05;9.33;;;6.97;;
53299;SDS011;39187;48.476;8.310;2024-03-22T00:07:31;7.33;;;6.80;;
53299;SDS011;39187;48.476;8.310;2024-03-22T00:09:56;6.50;;;6.10;;
53299;SDS011;39187;48.476;8.310;2024-03-22T00:12:22;8.70;;;6.47;;
53299;SDS011;39187;48.476;8.310;2024-03-22T00:14:48;7.17;;;6.77;;
53299;SDS011;39187;48.476;8.310;2024-03-22T00:17:13;7.60;;;6.63;;
53299;SDS011;39187;48.476;8.310;2024-03-22T00:19:39;7.50;;;6.90;;
53299;SDS011;39187;48.476;8.310;2024-03-22T00:22:05;9.63;;;8.63;;
53299;SDS011;39187;48.476;8.310;2024-03-22T00:24:30;8.43;;;7.93;;
53299;SDS011;39187;48.476;8.310;2024-03-22T00:26:56;8.80;;;8.00;;
53299;SDS011;39187;48.476;8.310;2024-03-22T00:29:21;9.57;;;8.77;;
53299;SDS011;39187;48.476;8.310;2024-03-22T00:31:47;10.07;;;9.27;;
53299;SDS011;39187;48.476;8.310;2024-03-22T00:34:12;9.27;;;8.47;;
53299;SDS011;39187;48.476;8.310;2024-03-22T00:36:38;8.93;;;8.13;;
53299;SDS011;39187;48.476;8.310;2024-03-22T00:39:03;8.60;;;8.00;;
53299;SDS011;39187;48.476;8.310;2024-03-22T00:41:29;8.10;;;7.40;;
53299;SDS011;39187;48.476;8.310;2024-03-22T00:43:54;7.43;;;6.93;;
53299;SDS011;39187;48.476;8.310;2024-03-22T00:46:20;8.70;;;7.90;;
53299;SDS011;39187;48.476;8.310;2024-03-22T00:48:45;6.83;;;6.40;;
53299;SDS011;39187;48.476;8.310;2024-03-22T00:51:11;8.73;;;7.57;;
53299;SDS011;39187;48.476;8.310;2024-03-22T00:53:36;7.83;;;7.23;;
53299;SDS011;39187;48.476;8.310;2024-03-22T00:56:02;11.00;;;7.63;;
53299;SDS011;39187;48.476;8.310;2024-03-22T00:58:27;6.77;;;6.37;;
53299;SDS011;39187;48.476;8.310;2024-03-22T01:00:53;7.77;;;7.13;;
53299;SDS011;39187;48.476;8.310;2024-03-22T01:03:19;6.27;;;5.87;;
53299;SDS011;39187;48.476;8.310;2024-03-22T01:05:45;9.57;;;8.77;;
53299;SDS011;39187;48.476;8.310;2024-03-22T01:08:11;7.70;;;7.10;;
53299;SDS011;39187;48.476;8.310;2024-03-22T01:10:37;7.60;;;7.00;;
53299;SDS011;39187;48.476;8.310;2024-03-22T01:13:02;6.50;;;6.03;;
53299;SDS011;39187;48.476;8.310;2024-03-22T01:15:28;6.43;;;5.93;;
53299;SDS011;39187;48.476;8.310;2024-03-22T01:17:53;5.20;;;4.80;;
53299;SDS011;39187;48.476;8.310;2024-03-22T01:20:19;5.50;;;5.20;;
53299;SDS011;39187;48.476;8.310;2024-03-22T01:22:45;6.17;;;5.13;;
53299;SDS011;39187;48.476;8.310;2024-03-22T01:25:10;6.33;;;5.77;;
53299;SDS011;39187;48.476;8.310;2024-03-22T01:27:36;5.77;;;5.37;;
53299;SDS011;39187;48.476;8.310;2024-03-22T01:30:02;6.17;;;5.73;;
53299;SDS011;39187;48.476;8.310;2024-03-22T01:32:28;6.03;;;5.57;;
53299;SDS011;39187;48.476;8.310;2024-03-22T01:34:53;6.10;;;5.50;;
53299;SDS011;39187;48.476;8.310;2024-03-22T01:37:19;5.40;;;5.10;;
53299;SDS011;39187;48.476;8.310;2024-03-22T01:39:44;6.50;;;6.00;;
53299;SDS011;39187;48.476;8.310;2024-03-22T01:42:10;4.83;;;4.53;;
53299;SDS011;39187;48.476;8.310;2024-03-22T01:44:35;6.73;;;5.90;;
53299;SDS011;39187;48.476;8.310;2024-03-22T01:47:01;9.43;;;6.27;;
53299;SDS011;39187;48.476;8.310;2024-03-22T01:49:27;6.07;;;5.70;;
53299;SDS011;39187;48.476;8.310;2024-03-22T01:51:54;5.63;;;5.20;;
53299;SDS011;39187;48.476;8.310;2024-03-22T01:54:20;5.70;;;5.30;;
53299;SDS011;39187;48.476;8.310;2024-03-22T01:56:47;5.20;;;4.80;;
53299;SDS011;39187;48.476;8.310;2024-03-22T01:59:12;5.97;;;5.27;;
53299;SDS011;39187;48.476;8.310;2024-03-22T02:01:38;8.13;;;7.53;;
53299;SDS011;39187;48.476;8.310;2024-03-22T02:04:04;7.70;;;7.10;;
53299;SDS011;39187;48.476;8.310;2024-03-22T02:06:31;7.33;;;6.70;;
53299;SDS011;39187;48.476;8.310;2024-03-22T02:08:57;8.83;;;8.13;;
53299;SDS011;39187;48.476;8.310;2024-03-22T02:11:23;9.77;;;8.80;;
53299;SDS011;39187;48.476;8.310;2024-03-22T02:13:50;12.07;;;10.97;;
53299;SDS011;39187;48.476;8.310;2024-03-22T02:16:16;11.87;;;8.90;;
53299;SDS011;39187;48.476;8.310;2024-03-22T02:18:42;11.37;;;10.30;;
53299;SDS011;39187;48.476;8.310;2024-03-22T02:21:07;10.90;;;9.90;;
53299;SDS011;39187;48.476;8.310;2024-03-22T02:23:39;12.70;;;11.40;;
53299;SDS011;39187;48.476;8.310;2024-03-22T02:26:06;13.70;;;11.93;;
53299;SDS011;39187;48.476;8.310;2024-03-22T02:28:32;13.97;;;10.03;;
53299;SDS011;39187;48.476;8.310;2024-03-22T02:30:58;11.40;;;10.30;;
53299;SDS011;39187;48.476;8.310;2024-03-22T02:33:25;12.90;;;10.37;;
53299;SDS011;39187;48.476;8.310;2024-03-22T02:35:50;12.90;;;11.17;;
53299;SDS011;39187;48.476;8.310;2024-03-22T02:38:16;11.63;;;10.57;;
53299;SDS011;39187;48.476;8.310;2024-03-22T02:40:45;11.57;;;10.50;;
53299;SDS011;39187;48.476;8.310;2024-03-22T02:43:12;9.50;;;8.80;;
53299;SDS011;39187;48.476;8.310;2024-03-22T02:45:38;12.90;;;10.73;;
53299;SDS011;39187;48.476;8.310;2024-03-22T02:48:03;14.17;;;11.40;;
53299;SDS011;39187;48.476;8.310;2024-03-22T02:50:36;12.50;;;10.70;;
53299;SDS011;39187;48.476;8.310;2024-03-22T02:53:02;12.07;;;10.13;;
53299;SDS011;39187;48.476;8.310;2024-03-22T02:55:28;16.30;;;9.70;;
53299;SDS011;39187;48.476;8.310;2024-03-22T02:57:55;12.90;;;10.30;;
53299;SDS011;39187;48.476;8.310;2024-03-22T03:00:22;15.77;;;11.80;;
53299;SDS011;39187;48.476;8.310;2024-03-22T03:02:47;17.70;;;12.73;;
53299;SDS011;39187;48.476;8.310;2024-03-22T03:05:13;14.57;;;11.67;;
53299;SDS011;39187;48.476;8.310;2024-03-22T03:07:38;16.17;;;12.30;;
53299;SDS011;39187;48.476;8.310;2024-03-22T03:10:04;14.83;;;11.83;;
53299;SDS011;39187;48.476;8.310;2024-03-22T03:12:30;16.10;;;11.77;;
53299;SDS011;39187;48.476;8.310;2024-03-22T03:14:55;18.37;;;11.70;;
53299;SDS011;39187;48.476;8.310;2024-03-22T03:17:21;16.90;;;13.40;;
53299;SDS011;39187;48.476;8.310;2024-03-22T03:19:48;16.10;;;12.67;;
53299;SDS011;39187;48.476;8.310;2024-03-22T03:22:13;16.77;;;11.70;;
53299;SDS011;39187;48.476;8.310;2024-03-22T03:24:39;15.13;;;11.27;;
53299;SDS011;39187;48.476;8.310;2024-03-22T03:27:04;17.53;;;11.57;;
53299;SDS011;39187;48.476;8.310;2024-03-22T03:29:30;15.27;;;10.40;;
53299;SDS011;39187;48.476;8.310;2024-03-22T03:31:55;11.60;;;10.50;;
53299;SDS011;39187;48.476;8.310;2024-03-22T03:34:21;12.47;;;11.13;;
53299;SDS011;39187;48.476;8.310;2024-03-22T03:36:47;15.07;;;10.03;;
53299;SDS011;39187;48.476;8.310;2024-03-22T03:39:12;15.53;;;11.57;;
53299;SDS011;39187;48.476;8.310;2024-03-22T03:41:38;13.77;;;10.40;;
53299;SDS011;39187;48.476;8.310;2024-03-22T03:44:04;13.13;;;10.07;;
53299;SDS011;39187;48.476;8.310;2024-03-22T03:46:29;11.73;;;10.57;;
53299;SDS011;39187;48.476;8.310;2024-03-22T03:48:55;11.97;;;10.83;;
53299;SDS011;39187;48.476;8.310;2024-03-22T03:51:20;10.10;;;9.20;;
53299;SDS011;39187;48.476;8.310;2024-03-22T03:53:46;12.07;;;10.60;;
53299;SDS011;39187;48.476;8.310;2024-03-22T03:56:11;9.10;;;8.50;;
53299;SDS011;39187;48.476;8.310;2024-03-22T03:58:37;9.33;;;8.63;;
53299;SDS011;39187;48.476;8.310;2024-03-22T04:01:08;10.93;;;8.97;;
53299;SDS011;39187;48.476;8.310;2024-03-22T04:03:34;9.37;;;8.50;;
53299;SDS011;39187;48.476;8.310;2024-03-22T04:06:00;11.17;;;10.03;;
53299;SDS011;39187;48.476;8.310;2024-03-22T04:08:26;10.90;;;9.80;;
53299;SDS011;39187;48.476;8.310;2024-03-22T04:10:52;11.63;;;9.80;;
53299;SDS011;39187;48.476;8.310;2024-03-22T04:13:18;15.63;;;10.43;;
53299;SDS011;39187;48.476;8.310;2024-03-22T04:15:44;13.73;;;11.67;;
53299;SDS011;39187;48.476;8.310;2024-03-22T04:18:09;17.70;;;11.90;;
53299;SDS011;39187;48.476;8.310;2024-03-22T04:20:35;11.93;;;10.77;;
53299;SDS011;39187;48.476;8.310;2024-03-22T04:23:00;12.37;;;11.03;;
53299;SDS011;39187;48.476;8.310;2024-03-22T04:25:26;15.30;;;13.00;;
53299;SDS011;39187;48.476;8.310;2024-03-22T04:27:51;18.23;;;12.97;;
53299;SDS011;39187;48.476;8.310;2024-03-22T04:30:16;17.03;;;13.07;;
53299;SDS011;39187;48.476;8.310;2024-03-22T04:32:42;17.60;;;11.50;;
53299;SDS011;39187;48.476;8.310;2024-03-22T04:35:10;13.73;;;12.07;;
53299;SDS011;39187;48.476;8.310;2024-03-22T04:37:36;15.50;;;11.00;;
53299;SDS011;39187;48.476;8.310;2024-03-22T04:40:01;15.87;;;12.43;;
53299;SDS011;39187;48.476;8.310;2024-03-22T04:42:27;13.33;;;11.60;;
53299;SDS011;39187;48.476;8.310;2024-03-22T04:44:53;13.50;;;12.00;;
53299;SDS011;39187;48.476;8.310;2024-03-22T04:47:19;18.17;;;13.80;;
53299;SDS011;39187;48.476;8.310;2024-03-22T04:49:45;17.20;;;13.80;;
53299;SDS011;39187;48.476;8.310;2024-03-22T04:52:11;17.10;;;14.23;;
53299;SDS011;39187;48.476;8.310;2024-03-22T04:54:36;13.57;;;12.17;;
53299;SDS011;39187;48.476;8.310;2024-03-22T04:57:02;14.37;;;12.53;;
53299;SDS011;39187;48.476;8.310;2024-03-22T04:59:27;17.97;;;13.73;;
53299;SDS011;39187;48.476;8.310;2024-03-22T05:01:53;16.10;;;12.50;;
53299;SDS011;39187;48.476;8.310;2024-03-22T05:04:18;15.93;;;14.20;;
53299;SDS011;39187;48.476;8.310;2024-03-22T05:06:44;19.50;;;13.27;;
53299;SDS011;39187;48.476;8.310;2024-03-22T05:09:09;15.63;;;12.97;;
53299;SDS011;39187;48.476;8.310;2024-03-22T05:11:35;13.93;;;12.50;;
53299;SDS011;39187;48.476;8.310;2024-03-22T05:14:00;19.60;;;14.57;;
53299;SDS011;39187;48.476;8.310;2024-03-22T05:16:26;18.87;;;14.37;;
53299;SDS011;39187;48.476;8.310;2024-03-22T05:18:51;16.33;;;12.23;;
53299;SDS011;39187;48.476;8.310;2024-03-22T05:21:17;16.33;;;13.63;;
53299;SDS011;39187;48.476;8.310;2024-03-22T05:23:42;17.50;;;13.67;;
53299;SDS011;39187;48.476;8.310;2024-03-22T05:26:08;14.77;;;12.67;;
53299;SDS011;39187;48.476;8.310;2024-03-22T05:28:33;16.10;;;11.90;;
53299;SDS011;39187;48.476;8.310;2024-03-22T05:30:59;16.13;;;13.00;;
53299;SDS011;39187;48.476;8.310;2024-03-22T05:33:24;16.40;;;13.07;;
53299;SDS011;39187;48.476;8.310;2024-03-22T05:35:49;20.10;;;13.67;;
53299;SDS011;39187;48.476;8.310;2024-03-22T05:38:15;18.07;;;12.03;;
53299;SDS011;39187;48.476;8.310;2024-03-22T05:40:40;20.10;;;14.73;;
53299;SDS011;39187;48.476;8.310;2024-03-22T05:43:06;18.87;;;13.50;;
53299;SDS011;39187;48.476;8.310;2024-03-22T05:45:31;17.60;;;13.63;;
53299;SDS011;39187;48.476;8.310;2024-03-22T05:47:57;20.23;;;14.17;;
53299;SDS011;39187;48.476;8.310;2024-03-22T05:50:22;17.47;;;13.87;;
53299;SDS011;39187;48.476;8.310;2024-03-22T05:52:48;18.90;;;14.33;;
53299;SDS011;39187;48.476;8.310;2024-03-22T05:55:13;19.17;;;13.80;;
53299;SDS011;39187;48.476;8.310;2024-03-22T05:57:39;24.63;;;15.10;;
53299;SDS011;39187;48.476;8.310;2024-03-22T06:00:05;21.30;;;14.33;;
53299;SDS011;39187;48.476;8.310;2024-03-22T06:02:32;20.20;;;15.83;;
53299;SDS011;39187;48.476;8.310;2024-03-22T06:04:58;19.60;;;15.00;;
53299;SDS011;39187;48.476;8.310;2024-03-22T06:07:24;16.30;;;12.60;;
53299;SDS011;39187;48.476;8.310;2024-03-22T06:09:50;19.13;;;13.57;;
53299;SDS011;39187;48.476;8.310;2024-03-22T06:12:17;30.27;;;16.43;;
53299;SDS011;39187;48.476;8.310;2024-03-22T06:14:44;18.70;;;14.00;;
53299;SDS011;39187;48.476;8.310;2024-03-22T06:17:10;15.70;;;13.07;;
53299;SDS011;39187;48.476;8.310;2024-03-22T06:19:36;19.17;;;15.33;;
53299;SDS011;39187;48.476;8.310;2024-03-22T06:22:02;15.13;;;13.43;;
53299;SDS011;39187;48.476;8.310;2024-03-22T06:24:27;16.73;;;12.97;;
53299;SDS011;39187;48.476;8.310;2024-03-22T06:26:53;15.97;;;13.50;;
53299;SDS011;39187;48.476;8.310;2024-03-22T06:29:19;21.10;;;13.67;;
53299;SDS011;39187;48.476;8.310;2024-03-22T06:31:44;17.33;;;13.93;;
53299;SDS011;39187;48.476;8.310;2024-03-22T06:34:10;15.90;;;13.27;;
53299;SDS011;39187;48.476;8.310;2024-03-22T06:36:35;20.27;;;13.03;;
53299;SDS011;39187;48.476;8.310;2024-03-22T06:39:01;17.80;;;13.43;;
53299;SDS011;39187;48.476;8.310;2024-03-22T06:41:28;17.07;;;14.70;;
53299;SDS011;39187;48.476;8.310;2024-03-22T06:43:53;14.00;;;12.57;;
53299;SDS011;39187;48.476;8.310;2024-03-22T06:46:19;15.03;;;12.67;;
53299;SDS011;39187;48.476;8.310;2024-03-22T06:48:45;19.60;;;13.10;;
53299;SDS011;39187;48.476;8.310;2024-03-22T06:51:11;16.77;;;12.40;;
53299;SDS011;39187;48.476;8.310;2024-03-22T06:53:37;15.40;;;13.53;;
53299;SDS011;39187;48.476;8.310;2024-03-22T06:56:03;17.90;;;12.10;;
53299;SDS011;39187;48.476;8.310;2024-03-22T06:58:29;13.60;;;12.30;;
53299;SDS011;39187;48.476;8.310;2024-03-22T07:00:54;15.80;;;12.67;;
53299;SDS011;39187;48.476;8.310;2024-03-22T07:03:20;12.73;;;10.50;;
53299;SDS011;39187;48.476;8.310;2024-03-22T07:05:46;18.20;;;11.57;;
53299;SDS011;39187;48.476;8.310;2024-03-22T07:08:12;16.80;;;11.80;;
53299;SDS011;39187;48.476;8.310;2024-03-22T07:10:38;25.50;;;11.90;;
53299;SDS011;39187;48.476;8.310;2024-03-22T07:13:04;13.23;;;11.93;;
53299;SDS011;39187;48.476;8.310;2024-03-22T07:15:30;11.57;;;10.57;;
53299;SDS011;39187;48.476;8.310;2024-03-22T07:17:57;12.27;;;11.07;;
53299;SDS011;39187;48.476;8.310;2024-03-22T07:20:23;14.60;;;11.77;;
53299;SDS011;39187;48.476;8.310;2024-03-22T07:22:49;12.50;;;11.00;;
53299;SDS011;39187;48.476;8.310;2024-03-22T07:25:14;11.70;;;10.27;;
53299;SDS011;39187;48.476;8.310;2024-03-22T07:27:40;11.40;;;10.13;;
53299;SDS011;39187;48.476;8.310;2024-03-22T07:30:06;12.60;;;11.30;;
53299;SDS011;39187;48.476;8.310;2024-03-22T07:32:32;11.37;;;10.17;;
53299;SDS011;39187;48.476;8.310;2024-03-22T07:34:58;12.00;;;10.83;;
53299;SDS011;39187;48.476;8.310;2024-03-22T07:37:23;12.40;;;11.13;;
53299;SDS011;39187;48.476;8.310;2024-03-22T07:39:49;16.70;;;11.50;;
53299;SDS011;39187;48.476;8.310;2024-03-22T07:42:14;13.73;;;11.20;;
53299;SDS011;39187;48.476;8.310;2024-03-22T07:44:40;12.10;;;10.63;;
53299;SDS011;39187;48.476;8.310;2024-03-22T07:47:06;15.30;;;11.27;;
53299;SDS011;39187;48.476;8.310;2024-03-22T07:49:31;11.57;;;10.33;;
53299;SDS011;39187;48.476;8.310;2024-03-22T07:51:59;11.23;;;10.27;;
53299;SDS011;39187;48.476;8.310;2024-03-22T07:54:25;10.47;;;9.67;;
53299;SDS011;39187;48.476;8.310;2024-03-22T07:56:50;10.03;;;9.20;;
53299;SDS011;39187;48.476;8.310;2024-03-22T07:59:16;11.00;;;8.73;;
53299;SDS011;39187;48.476;8.310;2024-03-22T08:01:41;9.60;;;8.70;;
53299;SDS011;39187;48.476;8.310;2024-03-22T08:04:07;11.00;;;9.43;;
53299;SDS011;39187;48.476;8.310;2024-03-22T08:06:32;16.60;;;11.60;;
53299;SDS011;39187;48.476;8.310;2024-03-22T08:08:58;11.27;;;10.33;;
53299;SDS011;39187;48.476;8.310;2024-03-22T08:11:23;11.43;;;9.13;;
53299;SDS011;39187;48.476;8.310;2024-03-22T08:13:49;8.73;;;8.10;;
53299;SDS011;39187;48.476;8.310;2024-03-22T08:16:14;8.77;;;8.17;;
53299;SDS011;39187;48.476;8.310;2024-03-22T08:18:40;8.80;;;8.10;;
53299;SDS011;39187;48.476;8.310;2024-03-22T08:21:05;9.03;;;8.20;;
53299;SDS011;39187;48.476;8.310;2024-03-22T08:23:31;9.50;;;8.60;;
53299;SDS011;39187;48.476;8.310;2024-03-22T08:25:57;8.60;;;7.90;;
53299;SDS011;39187;48.476;8.310;2024-03-22T08:28:22;7.90;;;7.30;;
53299;SDS011;39187;48.476;8.310;2024-03-22T08:30:48;8.17;;;7.43;;
53299;SDS011;39187;48.476;8.310;2024-03-22T08:33:14;10.97;;;8.40;;
53299;SDS011;39187;48.476;8.310;2024-03-22T08:35:40;10.23;;;9.30;;
53299;SDS011;39187;48.476;8.310;2024-03-22T08:38:05;7.90;;;7.47;;
53299;SDS011;39187;48.476;8.310;2024-03-22T08:40:38;8.50;;;7.63;;
53299;SDS011;39187;48.476;8.310;2024-03-22T08:43:05;12.17;;;8.90;;
53299;SDS011;39187;48.476;8.310;2024-03-22T08:45:34;8.73;;;7.67;;
53299;SDS011;39187;48.476;8.310;2024-03-22T08:48:00;9.00;;;8.40;;
53299;SDS011;39187;48.476;8.310;2024-03-22T08:50:26;8.60;;;7.90;;
53299;SDS011;39187;48.476;8.310;2024-03-22T08:52:51;7.10;;;6.60;;
53299;SDS011;39187;48.476;8.310;2024-03-22T08:55:17;7.33;;;6.87;;
53299;SDS011;39187;48.476;8.310;2024-03-22T08:57:43;7.00;;;6.50;;
53299;SDS011;39187;48.476;8.310;2024-03-22T09:00:09;9.10;;;7.40;;
53299;SDS011;39187;48.476;8.310;2024-03-22T09:02:35;7.00;;;6.60;;
53299;SDS011;39187;48.476;8.310;2024-03-22T09:05:02;8.43;;;7.73;;
53299;SDS011;39187;48.476;8.310;2024-03-22T09:07:27;7.43;;;7.03;;
53299;SDS011;39187;48.476;8.310;2024-03-22T09:09:53;8.70;;;7.90;;
53299;SDS011;39187;48.476;8.310;2024-03-22T09:12:18;7.53;;;6.90;;
53299;SDS011;39187;48.476;8.310;2024-03-22T09:14:44;8.47;;;7.63;;
53299;SDS011;39187;48.476;8.310;2024-03-22T09:17:10;7.83;;;7.10;;
53299;SDS011;39187;48.476;8.310;2024-03-22T09:19:35;7.57;;;7.00;;
53299;SDS011;39187;48.476;8.310;2024-03-22T09:22:01;7.80;;;7.20;;
53299;SDS011;39187;48.476;8.310;2024-03-22T09:24:26;7.63;;;6.90;;
53299;SDS011;39187;48.476;8.310;2024-03-22T09:26:52;6.30;;;5.83;;
53299;SDS011;39187;48.476;8.310;2024-03-22T09:29:18;6.70;;;5.67;;
53299;SDS011;39187;48.476;8.310;2024-03-22T09:31:43;6.20;;;5.80;;
53299;SDS011;39187;48.476;8.310;2024-03-22T09:34:09;7.97;;;6.10;;
53299;SDS011;39187;48.476;8.310;2024-03-22T09:36:35;7.07;;;6.57;;
53299;SDS011;39187;48.476;8.310;2024-03-22T09:39:03;7.93;;;7.43;;
53299;SDS011;39187;48.476;8.310;2024-03-22T09:41:30;8.30;;;7.50;;
53299;SDS011;39187;48.476;8.310;2024-03-22T09:43:57;7.50;;;6.97;;
53299;SDS011;39187;48.476;8.310;2024-03-22T09:46:25;6.77;;;6.37;;
53299;SDS011;39187;48.476;8.310;2024-03-22T09:48:52;6.77;;;6.10;;
53299;SDS011;39187;48.476;8.310;2024-03-22T09:51:19;6.10;;;5.60;;
53299;SDS011;39187;48.476;8.310;2024-03-22T09:53:46;5.00;;;4.53;;
53299;SDS011;39187;48.476;8.310;2024-03-22T09:56:14;6.07;;;5.33;;
53299;SDS011;39187;48.476;8.310;2024-03-22T09:58:40;6.53;;;6.13;;
53299;SDS011;39187;48.476;8.310;2024-03-22T10:01:06;7.33;;;6.50;;
53299;SDS011;39187;48.476;8.310;2024-03-22T10:03:32;6.67;;;5.00;;
53299;SDS011;39187;48.476;8.310;2024-03-22T10:05:58;5.60;;;5.10;;
53299;SDS011;39187;48.476;8.310;2024-03-22T10:08:23;5.93;;;5.10;;
53299;SDS011;39187;48.476;8.310;2024-03-22T10:10:49;6.83;;;6.43;;
53299;SDS011;39187;48.476;8.310;2024-03-22T10:13:14;7.87;;;7.37;;
53299;SDS011;39187;48.476;8.310;2024-03-22T10:15:40;5.70;;;5.30;;
53299;SDS011;39187;48.476;8.310;2024-03-22T10:18:05;6.47;;;5.83;;
53299;SDS011;39187;48.476;8.310;2024-03-22T10:20:32;6.90;;;5.73;;
53299;SDS011;39187;48.476;8.310;2024-03-22T10:22:58;5.50;;;4.63;;
53299;SDS011;39187;48.476;8.310;2024-03-22T10:25:27;4.43;;;4.20;;
53299;SDS011;39187;48.476;8.310;2024-03-22T10:27:54;4.03;;;3.80;;
53299;SDS011;39187;48.476;8.310;2024-03-22T10:30:24;5.07;;;4.60;;
53299;SDS011;39187;48.476;8.310;2024-03-22T10:32:49;5.73;;;5.13;;
53299;SDS011;39187;48.476;8.310;2024-03-22T10:35:16;5.53;;;5.13;;
53299;SDS011;39187;48.476;8.310;2024-03-22T10:37:42;10.17;;;6.70;;
53299;SDS011;39187;48.476;8.310;2024-03-22T10:40:08;7.10;;;6.60;;
53299;SDS011;39187;48.476;8.310;2024-03-22T10:42:35;5.33;;;4.83;;
53299;SDS011;39187;48.476;8.310;2024-03-22T10:45:05;5.60;;;5.10;;
53299;SDS011;39187;48.476;8.310;2024-03-22T10:47:32;11.47;;;6.00;;
53299;SDS011;39187;48.476;8.310;2024-03-22T10:55:05;6.07;;;5.20;;
53299;SDS011;39187;48.476;8.310;2024-03-22T10:57:35;5.23;;;4.93;;
53299;SDS011;39187;48.476;8.310;2024-03-22T11:00:04;5.03;;;4.53;;
53299;SDS011;39187;48.476;8.310;2024-03-22T11:02:35;4.70;;;4.40;;
53299;SDS011;39187;48.476;8.310;2024-03-22T11:05:01;3.63;;;3.33;;
53299;SDS011;39187;48.476;8.310;2024-03-22T11:07:30;4.17;;;3.97;;
53299;SDS011;39187;48.476;8.310;2024-03-22T11:09:56;4.00;;;3.70;;
53299;SDS011;39187;48.476;8.310;2024-03-22T11:12:25;4.03;;;3.73;;
53299;SDS011;39187;48.476;8.310;2024-03-22T11:14:55;3.43;;;3.23;;
53299;SDS011;39187;48.476;8.310;2024-03-22T11:17:20;2.97;;;2.77;;
53299;SDS011;39187;48.476;8.310;2024-03-22T11:19:52;3.97;;;2.90;;
53299;SDS011;39187;48.476;8.310;2024-03-22T11:22:18;3.60;;;3.30;;
53299;SDS011;39187;48.476;8.310;2024-03-22T11:24:43;3.50;;;3.40;;
53299;SDS011;39187;48.476;8.310;2024-03-22T11:27:09;2.97;;;2.80;;
53299;SDS011;39187;48.476;8.310;2024-03-22T11:29:39;3.83;;;1.80;;
53299;SDS011;39187;48.476;8.310;2024-03-22T11:32:09;4.97;;;2.00;;
53299;SDS011;39187;48.476;8.310;2024-03-22T11:34:35;2.37;;;2.20;;
53299;SDS011;39187;48.476;8.310;2024-03-22T11:37:01;3.57;;;2.93;;
53299;SDS011;39187;48.476;8.310;2024-03-22T11:39:27;5.83;;;4.07;;
53299;SDS011;39187;48.476;8.310;2024-03-22T11:41:53;2.50;;;2.30;;
53299;SDS011;39187;48.476;8.310;2024-03-22T11:44:19;1.97;;;1.87;;
53299;SDS011;39187;48.476;8.310;2024-03-22T11:46:46;3.07;;;2.70;;
53299;SDS011;39187;48.476;8.310;2024-03-22T11:49:13;3.73;;;2.33;;
53299;SDS011;39187;48.476;8.310;2024-03-22T11:51:38;3.00;;;2.57;;
53299;SDS011;39187;48.476;8.310;2024-03-22T11:54:05;2.57;;;2.47;;
53299;SDS011;39187;48.476;8.310;2024-03-22T11:56:34;2.50;;;2.30;;
53299;SDS011;39187;48.476;8.310;2024-03-22T11:59:00;1.93;;;1.70;;
53299;SDS011;39187;48.476;8.310;2024-03-22T12:01:28;2.00;;;1.90;;
53299;SDS011;39187;48.476;8.310;2024-03-22T12:03:53;2.23;;;2.13;;
53299;SDS011;39187;48.476;8.310;2024-03-22T12:06:20;2.00;;;1.90;;
53299;SDS011;39187;48.476;8.310;2024-03-22T12:08:46;2.43;;;2.33;;
53299;SDS011;39187;48.476;8.310;2024-03-22T12:11:12;3.17;;;2.63;;
53299;SDS011;39187;48.476;8.310;2024-03-22T12:13:39;2.70;;;2.60;;
53299;SDS011;39187;48.476;8.310;2024-03-22T12:16:04;2.70;;;2.27;;
53299;SDS011;39187;48.476;8.310;2024-03-22T12:18:31;3.60;;;2.50;;
53299;SDS011;39187;48.476;8.310;2024-03-22T12:20:56;2.17;;;2.00;;
53299;SDS011;39187;48.476;8.310;2024-03-22T12:23:22;2.70;;;2.10;;
53299;SDS011;39187;48.476;8.310;2024-03-22T12:25:49;5.43;;;1.70;;
53299;SDS011;39187;48.476;8.310;2024-03-22T12:28:16;4.87;;;2.30;;
53299;SDS011;39187;48.476;8.310;2024-03-22T12:30:41;2.03;;;1.70;;
53299;SDS011;39187;48.476;8.310;2024-03-22T12:33:08;3.97;;;2.03;;
53299;SDS011;39187;48.476;8.310;2024-03-22T12:35:35;2.80;;;2.27;;
53299;SDS011;39187;48.476;8.310;2024-03-22T12:38:02;2.60;;;2.40;;
53299;SDS011;39187;48.476;8.310;2024-03-22T12:40:28;2.27;;;2.17;;
53299;SDS011;39187;48.476;8.310;2024-03-22T12:42:54;1.90;;;1.50;;
53299;SDS011;39187;48.476;8.310;2024-03-22T12:45:21;2.83;;;2.43;;
53299;SDS011;39187;48.476;8.310;2024-03-22T12:47:46;3.43;;;3.13;;
53299;SDS011;39187;48.476;8.310;2024-03-22T12:50:12;2.03;;;1.93;;
53299;SDS011;39187;48.476;8.310;2024-03-22T12:52:38;2.30;;;2.10;;
53299;SDS011;39187;48.476;8.310;2024-03-22T12:55:04;2.40;;;2.20;;
53299;SDS011;39187;48.476;8.310;2024-03-22T12:57:31;2.90;;;2.20;;
53299;SDS011;39187;48.476;8.310;2024-03-22T12:59:57;2.00;;;1.53;;
53299;SDS011;39187;48.476;8.310;2024-03-22T13:02:23;2.23;;;1.93;;
53299;SDS011;39187;48.476;8.310;2024-03-22T13:04:51;2.00;;;1.90;;
53299;SDS011;39187;48.476;8.310;2024-03-22T13:07:18;2.30;;;2.10;;
53299;SDS011;39187;48.476;8.310;2024-03-22T13:09:44;3.00;;;1.97;;
53299;SDS011;39187;48.476;8.310;2024-03-22T13:12:10;2.80;;;1.87;;
53299;SDS011;39187;48.476;8.310;2024-03-22T13:14:35;1.70;;;1.60;;
53299;SDS011;39187;48.476;8.310;2024-03-22T13:17:01;1.83;;;1.73;;
53299;SDS011;39187;48.476;8.310;2024-03-22T13:19:26;3.03;;;1.40;;
53299;SDS011;39187;48.476;8.310;2024-03-22T13:21:52;1.70;;;1.60;;
53299;SDS011;39187;48.476;8.310;2024-03-22T13:24:17;1.43;;;1.33;;
53299;SDS011;39187;48.476;8.310;2024-03-22T13:26:44;2.33;;;1.60;;
53299;SDS011;39187;48.476;8.310;2024-03-22T13:29:09;1.30;;;1.20;;
53299;SDS011;39187;48.476;8.310;2024-03-22T13:31:36;4.50;;;1.83;;
53299;SDS011;39187;48.476;8.310;2024-03-22T13:34:02;1.57;;;1.47;;
53299;SDS011;39187;48.476;8.310;2024-03-22T13:36:28;1.67;;;1.47;;
53299;SDS011;39187;48.476;8.310;2024-03-22T13:38:57;1.80;;;1.70;;
53299;SDS011;39187;48.476;8.310;2024-03-22T13:41:23;1.60;;;1.50;;
53299;SDS011;39187;48.476;8.310;2024-03-22T13:43:49;1.73;;;1.63;;
53299;SDS011;39187;48.476;8.310;2024-03-22T13:46:14;1.57;;;1.47;;
53299;SDS011;39187;48.476;8.310;2024-03-22T13:48:42;2.73;;;2.27;;
53299;SDS011;39187;48.476;8.310;2024-03-22T13:51:08;1.63;;;1.50;;
53299;SDS011;39187;48.476;8.310;2024-03-22T13:53:34;1.47;;;1.37;;
53299;SDS011;39187;48.476;8.310;2024-03-22T13:55:59;1.57;;;1.23;;
53299;SDS011;39187;48.476;8.310;2024-03-22T13:58:26;4.60;;;1.60;;
53299;SDS011;39187;48.476;8.310;2024-03-22T14:00:52;2.23;;;2.10;;
53299;SDS011;39187;48.476;8.310;2024-03-22T14:03:18;1.60;;;1.50;;
53299;SDS011;39187;48.476;8.310;2024-03-22T14:05:44;1.33;;;0.97;;
53299;SDS011;39187;48.476;8.310;2024-03-22T14:08:09;1.93;;;1.27;;
53299;SDS011;39187;48.476;8.310;2024-03-22T14:10:35;1.73;;;1.63;;
53299;SDS011;39187;48.476;8.310;2024-03-22T14:13:01;2.03;;;1.20;;
53299;SDS011;39187;48.476;8.310;2024-03-22T14:15:26;1.53;;;1.10;;
53299;SDS011;39187;48.476;8.310;2024-03-22T14:17:56;4.53;;;1.70;;
53299;SDS011;39187;48.476;8.310;2024-03-22T14:20:22;1.20;;;1.10;;
53299;SDS011;39187;48.476;8.310;2024-03-22T14:22:48;1.83;;;1.73;;
53299;SDS011;39187;48.476;8.310;2024-03-22T14:25:13;2.10;;;1.80;;
53299;SDS011;39187;48.476;8.310;2024-03-22T14:27:39;1.43;;;1.33;;
53299;SDS011;39187;48.476;8.310;2024-03-22T14:30:07;1.57;;;1.47;;
53299;SDS011;39187;48.476;8.310;2024-03-22T14:32:34;2.70;;;1.30;;
53299;SDS011;39187;48.476;8.310;2024-03-22T14:35:00;3.87;;;1.83;;